sensor_id;sensor_type;location;lat;lon;timestamp;P1;durP1;ratioP1;P2;durP2;ratioP2
71172;SDS011;58875;51.996;4.504;2023-12-20T00:00:24;6.45;;;4.56;;
71172;SDS011;58875;51.996;4.504;2023-12-20T00:02:50;7.13;;;4.99;;
71172;SDS011;58875;51.996;4.504;2023-12-20T00:05:16;7.11;;;4.94;;
71172;SDS011;58875;51.996;4.504;2023-12-20T00:07:41;7.37;;;5.14;;
71172;SDS011;58875;51.996;4.504;2023-12-20T00:10:07;7.57;;;5.21;;
71172;SDS011;58875;51.996;4.504;2023-12-20T00:12:33;7.33;;;5.20;;
71172;SDS011;58875;51.996;4.504;2023-12-20T00:14:58;7.35;;;5.22;;
71172;SDS011;58875;51.996;4.504;2023-12-20T00:17:23;7.15;;;5.04;;
71172;SDS011;58875;51.996;4.504;2023-12-20T00:19:49;7.51;;;5.28;;
71172;SDS011;58875;51.996;4.504;2023-12-20T00:22:15;7.31;;;5.17;;
71172;SDS011;58875;51.996;4.504;2023-12-20T00:24:40;7.68;;;5.40;;
71172;SDS011;58875;51.996;4.504;2023-12-20T00:27:06;7.87;;;5.46;;
71172;SDS011;58875;51.996;4.504;2023-12-20T00:29:31;7.82;;;5.49;;
71172;SDS011;58875;51.996;4.504;2023-12-20T00:31:57;8.25;;;5.77;;
71172;SDS011;58875;51.996;4.504;2023-12-20T00:34:22;7.62;;;5.41;;
71172;SDS011;58875;51.996;4.504;2023-12-20T00:36:48;7.78;;;5.53;;
71172;SDS011;58875;51.996;4.504;2023-12-20T00:39:13;7.92;;;5.73;;
71172;SDS011;58875;51.996;4.504;2023-12-20T00:41:39;8.36;;;5.96;;
71172;SDS011;58875;51.996;4.504;2023-12-20T00:44:05;8.23;;;5.86;;
71172;SDS011;58875;51.996;4.504;2023-12-20T00:46:31;8.30;;;5.91;;
71172;SDS011;58875;51.996;4.504;2023-12-20T00:48:56;8.00;;;5.71;;
71172;SDS011;58875;51.996;4.504;2023-12-20T00:51:22;8.47;;;6.03;;
71172;SDS011;58875;51.996;4.504;2023-12-20T00:53:49;8.07;;;5.75;;
71172;SDS011;58875;51.996;4.504;2023-12-20T00:56:15;8.48;;;5.97;;
71172;SDS011;58875;51.996;4.504;2023-12-20T00:58:41;8.99;;;6.34;;
71172;SDS011;58875;51.996;4.504;2023-12-20T01:01:06;7.29;;;5.28;;
71172;SDS011;58875;51.996;4.504;2023-12-20T01:03:32;6.83;;;5.00;;
71172;SDS011;58875;51.996;4.504;2023-12-20T01:05:57;7.43;;;5.38;;
71172;SDS011;58875;51.996;4.504;2023-12-20T01:08:23;7.29;;;5.33;;
71172;SDS011;58875;51.996;4.504;2023-12-20T01:10:48;7.68;;;5.65;;
71172;SDS011;58875;51.996;4.504;2023-12-20T01:13:14;7.36;;;5.42;;
71172;SDS011;58875;51.996;4.504;2023-12-20T01:15:40;7.80;;;5.64;;
71172;SDS011;58875;51.996;4.504;2023-12-20T01:18:05;9.00;;;6.33;;
71172;SDS011;58875;51.996;4.504;2023-12-20T01:20:31;9.22;;;6.44;;
71172;SDS011;58875;51.996;4.504;2023-12-20T01:22:56;8.92;;;6.24;;
71172;SDS011;58875;51.996;4.504;2023-12-20T01:25:22;8.81;;;6.17;;
71172;SDS011;58875;51.996;4.504;2023-12-20T01:27:48;8.57;;;6.06;;
71172;SDS011;58875;51.996;4.504;2023-12-20T01:30:14;8.21;;;5.89;;
71172;SDS011;58875;51.996;4.504;2023-12-20T01:32:40;7.54;;;5.43;;
71172;SDS011;58875;51.996;4.504;2023-12-20T01:35:05;7.55;;;5.38;;
71172;SDS011;58875;51.996;4.504;2023-12-20T01:37:31;8.68;;;6.06;;
71172;SDS011;58875;51.996;4.504;2023-12-20T01:39:58;8.17;;;5.77;;
71172;SDS011;58875;51.996;4.504;2023-12-20T01:42:26;8.47;;;5.88;;
71172;SDS011;58875;51.996;4.504;2023-12-20T01:44:52;8.76;;;6.00;;
71172;SDS011;58875;51.996;4.504;2023-12-20T01:47:17;7.53;;;5.29;;
71172;SDS011;58875;51.996;4.504;2023-12-20T01:49:43;8.56;;;5.93;;
71172;SDS011;58875;51.996;4.504;2023-12-20T01:52:09;8.88;;;6.08;;
71172;SDS011;58875;51.996;4.504;2023-12-20T01:54:35;8.49;;;5.81;;
71172;SDS011;58875;51.996;4.504;2023-12-20T01:57:02;8.64;;;5.87;;
71172;SDS011;58875;51.996;4.504;2023-12-20T01:59:29;8.99;;;6.16;;
71172;SDS011;58875;51.996;4.504;2023-12-20T02:01:56;9.21;;;6.30;;
71172;SDS011;58875;51.996;4.504;2023-12-20T02:04:21;9.68;;;6.52;;
71172;SDS011;58875;51.996;4.504;2023-12-20T02:06:47;10.20;;;6.88;;
71172;SDS011;58875;51.996;4.504;2023-12-20T02:09:15;10.13;;;6.83;;
71172;SDS011;58875;51.996;4.504;2023-12-20T02:11:41;9.86;;;6.70;;
71172;SDS011;58875;51.996;4.504;2023-12-20T02:14:06;10.07;;;6.82;;
71172;SDS011;58875;51.996;4.504;2023-12-20T02:16:32;9.56;;;6.55;;
71172;SDS011;58875;51.996;4.504;2023-12-20T02:18:57;9.64;;;6.54;;
71172;SDS011;58875;51.996;4.504;2023-12-20T02:21:32;10.70;;;7.13;;
71172;SDS011;58875;51.996;4.504;2023-12-20T02:24:00;9.62;;;6.46;;
71172;SDS011;58875;51.996;4.504;2023-12-20T02:26:25;9.13;;;6.23;;
71172;SDS011;58875;51.996;4.504;2023-12-20T02:28:51;9.69;;;6.57;;
71172;SDS011;58875;51.996;4.504;2023-12-20T02:31:20;10.63;;;7.00;;
71172;SDS011;58875;51.996;4.504;2023-12-20T02:33:47;9.36;;;6.21;;
71172;SDS011;58875;51.996;4.504;2023-12-20T02:36:13;9.29;;;6.20;;
71172;SDS011;58875;51.996;4.504;2023-12-20T02:38:38;9.34;;;6.26;;
71172;SDS011;58875;51.996;4.504;2023-12-20T02:41:04;10.37;;;6.88;;
71172;SDS011;58875;51.996;4.504;2023-12-20T02:43:29;10.50;;;6.95;;
71172;SDS011;58875;51.996;4.504;2023-12-20T02:45:55;10.28;;;6.78;;
71172;SDS011;58875;51.996;4.504;2023-12-20T02:48:20;9.56;;;6.36;;
71172;SDS011;58875;51.996;4.504;2023-12-20T02:50:46;10.59;;;6.92;;
71172;SDS011;58875;51.996;4.504;2023-12-20T02:53:14;10.23;;;6.75;;
71172;SDS011;58875;51.996;4.504;2023-12-20T02:55:40;10.44;;;6.96;;
71172;SDS011;58875;51.996;4.504;2023-12-20T02:58:05;9.55;;;6.42;;
71172;SDS011;58875;51.996;4.504;2023-12-20T03:00:31;10.38;;;6.83;;
71172;SDS011;58875;51.996;4.504;2023-12-20T03:02:56;11.25;;;7.41;;
71172;SDS011;58875;51.996;4.504;2023-12-20T03:05:22;10.73;;;7.08;;
71172;SDS011;58875;51.996;4.504;2023-12-20T03:07:47;10.05;;;6.68;;
71172;SDS011;58875;51.996;4.504;2023-12-20T03:10:13;10.29;;;6.83;;
71172;SDS011;58875;51.996;4.504;2023-12-20T03:12:38;9.74;;;6.48;;
71172;SDS011;58875;51.996;4.504;2023-12-20T03:15:04;9.63;;;6.36;;
71172;SDS011;58875;51.996;4.504;2023-12-20T03:17:30;9.75;;;6.44;;
71172;SDS011;58875;51.996;4.504;2023-12-20T03:19:56;9.64;;;6.43;;
71172;SDS011;58875;51.996;4.504;2023-12-20T03:22:21;8.53;;;5.80;;
71172;SDS011;58875;51.996;4.504;2023-12-20T03:24:47;10.66;;;7.12;;
71172;SDS011;58875;51.996;4.504;2023-12-20T03:27:13;9.37;;;6.21;;
71172;SDS011;58875;51.996;4.504;2023-12-20T03:29:38;9.63;;;6.38;;
71172;SDS011;58875;51.996;4.504;2023-12-20T03:32:03;10.17;;;6.77;;
71172;SDS011;58875;51.996;4.504;2023-12-20T03:34:32;10.41;;;6.93;;
71172;SDS011;58875;51.996;4.504;2023-12-20T03:36:58;10.36;;;6.94;;
71172;SDS011;58875;51.996;4.504;2023-12-20T03:39:23;10.72;;;7.12;;
71172;SDS011;58875;51.996;4.504;2023-12-20T03:41:49;9.67;;;6.53;;
71172;SDS011;58875;51.996;4.504;2023-12-20T03:44:14;10.18;;;6.78;;
71172;SDS011;58875;51.996;4.504;2023-12-20T03:46:40;9.48;;;6.37;;
71172;SDS011;58875;51.996;4.504;2023-12-20T03:49:05;9.62;;;6.53;;
71172;SDS011;58875;51.996;4.504;2023-12-20T03:51:30;10.38;;;7.04;;
71172;SDS011;58875;51.996;4.504;2023-12-20T03:53:56;10.14;;;6.74;;
71172;SDS011;58875;51.996;4.504;2023-12-20T03:56:21;10.71;;;7.08;;
71172;SDS011;58875;51.996;4.504;2023-12-20T03:58:47;10.87;;;7.21;;
71172;SDS011;58875;51.996;4.504;2023-12-20T04:01:12;10.96;;;7.29;;
71172;SDS011;58875;51.996;4.504;2023-12-20T04:03:38;9.96;;;6.65;;
71172;SDS011;58875;51.996;4.504;2023-12-20T04:06:05;9.80;;;6.68;;
71172;SDS011;58875;51.996;4.504;2023-12-20T04:08:31;8.89;;;6.14;;
71172;SDS011;58875;51.996;4.504;2023-12-20T04:10:56;8.97;;;6.21;;
71172;SDS011;58875;51.996;4.504;2023-12-20T04:13:22;10.01;;;6.88;;
71172;SDS011;58875;51.996;4.504;2023-12-20T04:15:47;9.95;;;6.89;;
71172;SDS011;58875;51.996;4.504;2023-12-20T04:18:15;9.72;;;6.81;;
71172;SDS011;58875;51.996;4.504;2023-12-20T04:20:40;9.89;;;6.73;;
71172;SDS011;58875;51.996;4.504;2023-12-20T04:23:06;9.79;;;6.69;;
71172;SDS011;58875;51.996;4.504;2023-12-20T04:25:31;10.22;;;6.93;;
71172;SDS011;58875;51.996;4.504;2023-12-20T04:27:57;10.72;;;7.26;;
71172;SDS011;58875;51.996;4.504;2023-12-20T04:30:22;10.11;;;6.88;;
71172;SDS011;58875;51.996;4.504;2023-12-20T04:32:48;10.13;;;6.84;;
71172;SDS011;58875;51.996;4.504;2023-12-20T04:35:13;10.88;;;7.16;;
71172;SDS011;58875;51.996;4.504;2023-12-20T04:37:39;10.49;;;6.96;;
71172;SDS011;58875;51.996;4.504;2023-12-20T04:40:05;9.50;;;6.42;;
71172;SDS011;58875;51.996;4.504;2023-12-20T04:42:30;9.55;;;6.49;;
71172;SDS011;58875;51.996;4.504;2023-12-20T04:44:56;8.84;;;6.08;;
71172;SDS011;58875;51.996;4.504;2023-12-20T04:47:21;9.02;;;6.13;;
71172;SDS011;58875;51.996;4.504;2023-12-20T04:49:50;10.03;;;6.70;;
71172;SDS011;58875;51.996;4.504;2023-12-20T04:52:15;10.04;;;6.67;;
71172;SDS011;58875;51.996;4.504;2023-12-20T04:54:41;10.45;;;6.94;;
71172;SDS011;58875;51.996;4.504;2023-12-20T04:57:07;10.75;;;7.12;;
71172;SDS011;58875;51.996;4.504;2023-12-20T04:59:32;10.38;;;6.78;;
71172;SDS011;58875;51.996;4.504;2023-12-20T05:01:58;10.77;;;7.07;;
71172;SDS011;58875;51.996;4.504;2023-12-20T05:04:23;11.54;;;7.45;;
71172;SDS011;58875;51.996;4.504;2023-12-20T05:06:49;11.68;;;7.58;;
71172;SDS011;58875;51.996;4.504;2023-12-20T05:09:15;11.35;;;7.50;;
71172;SDS011;58875;51.996;4.504;2023-12-20T05:11:40;11.24;;;7.42;;
71172;SDS011;58875;51.996;4.504;2023-12-20T05:14:06;11.32;;;7.45;;
71172;SDS011;58875;51.996;4.504;2023-12-20T05:16:32;11.49;;;7.57;;
71172;SDS011;58875;51.996;4.504;2023-12-20T05:18:58;11.45;;;7.56;;
71172;SDS011;58875;51.996;4.504;2023-12-20T05:21:26;11.31;;;7.57;;
71172;SDS011;58875;51.996;4.504;2023-12-20T05:23:51;11.20;;;7.41;;
71172;SDS011;58875;51.996;4.504;2023-12-20T05:26:17;10.92;;;7.25;;
71172;SDS011;58875;51.996;4.504;2023-12-20T05:28:42;10.21;;;6.99;;
71172;SDS011;58875;51.996;4.504;2023-12-20T05:31:08;9.52;;;6.53;;
71172;SDS011;58875;51.996;4.504;2023-12-20T05:33:34;10.14;;;6.95;;
71172;SDS011;58875;51.996;4.504;2023-12-20T05:36:00;10.89;;;7.29;;
71172;SDS011;58875;51.996;4.504;2023-12-20T05:38:25;10.80;;;7.19;;
71172;SDS011;58875;51.996;4.504;2023-12-20T05:40:51;10.36;;;6.97;;
71172;SDS011;58875;51.996;4.504;2023-12-20T05:43:16;10.68;;;7.27;;
71172;SDS011;58875;51.996;4.504;2023-12-20T05:45:42;10.19;;;6.98;;
71172;SDS011;58875;51.996;4.504;2023-12-20T05:48:07;11.14;;;7.53;;
71172;SDS011;58875;51.996;4.504;2023-12-20T05:50:33;10.71;;;7.27;;
71172;SDS011;58875;51.996;4.504;2023-12-20T05:53:00;10.45;;;7.08;;
71172;SDS011;58875;51.996;4.504;2023-12-20T05:55:25;10.73;;;7.37;;
71172;SDS011;58875;51.996;4.504;2023-12-20T05:57:51;10.86;;;7.39;;
71172;SDS011;58875;51.996;4.504;2023-12-20T06:00:17;10.22;;;6.92;;
71172;SDS011;58875;51.996;4.504;2023-12-20T06:02:42;10.38;;;7.01;;
71172;SDS011;58875;51.996;4.504;2023-12-20T06:05:08;9.69;;;6.63;;
71172;SDS011;58875;51.996;4.504;2023-12-20T06:07:34;9.87;;;6.73;;
71172;SDS011;58875;51.996;4.504;2023-12-20T06:09:59;9.95;;;6.80;;
71172;SDS011;58875;51.996;4.504;2023-12-20T06:12:25;11.20;;;7.57;;
71172;SDS011;58875;51.996;4.504;2023-12-20T06:14:52;9.97;;;6.73;;
71172;SDS011;58875;51.996;4.504;2023-12-20T06:17:17;11.05;;;7.46;;
71172;SDS011;58875;51.996;4.504;2023-12-20T06:19:43;11.65;;;7.83;;
71172;SDS011;58875;51.996;4.504;2023-12-20T06:22:10;9.98;;;6.78;;
71172;SDS011;58875;51.996;4.504;2023-12-20T06:24:36;10.54;;;7.22;;
71172;SDS011;58875;51.996;4.504;2023-12-20T06:27:01;10.65;;;7.29;;
71172;SDS011;58875;51.996;4.504;2023-12-20T06:29:27;10.23;;;7.04;;
71172;SDS011;58875;51.996;4.504;2023-12-20T06:31:53;11.34;;;7.67;;
71172;SDS011;58875;51.996;4.504;2023-12-20T06:34:18;12.25;;;8.12;;
71172;SDS011;58875;51.996;4.504;2023-12-20T06:36:44;10.88;;;7.20;;
71172;SDS011;58875;51.996;4.504;2023-12-20T06:39:09;11.75;;;7.76;;
71172;SDS011;58875;51.996;4.504;2023-12-20T06:41:37;12.14;;;7.85;;
71172;SDS011;58875;51.996;4.504;2023-12-20T06:44:03;12.84;;;8.32;;
71172;SDS011;58875;51.996;4.504;2023-12-20T06:46:29;12.23;;;8.05;;
71172;SDS011;58875;51.996;4.504;2023-12-20T06:48:55;10.96;;;7.32;;
71172;SDS011;58875;51.996;4.504;2023-12-20T06:51:20;11.14;;;7.48;;
71172;SDS011;58875;51.996;4.504;2023-12-20T06:53:46;10.97;;;7.38;;
71172;SDS011;58875;51.996;4.504;2023-12-20T06:56:11;11.38;;;7.67;;
71172;SDS011;58875;51.996;4.504;2023-12-20T06:58:37;10.68;;;7.14;;
71172;SDS011;58875;51.996;4.504;2023-12-20T07:01:03;11.12;;;7.44;;
71172;SDS011;58875;51.996;4.504;2023-12-20T07:03:29;11.67;;;7.72;;
71172;SDS011;58875;51.996;4.504;2023-12-20T07:05:56;11.06;;;7.37;;
71172;SDS011;58875;51.996;4.504;2023-12-20T07:08:22;11.34;;;7.61;;
71172;SDS011;58875;51.996;4.504;2023-12-20T07:10:50;11.61;;;7.81;;
71172;SDS011;58875;51.996;4.504;2023-12-20T07:13:15;11.48;;;7.77;;
71172;SDS011;58875;51.996;4.504;2023-12-20T07:15:41;12.92;;;8.60;;
71172;SDS011;58875;51.996;4.504;2023-12-20T07:18:07;12.92;;;8.50;;
71172;SDS011;58875;51.996;4.504;2023-12-20T07:20:35;11.83;;;7.85;;
71172;SDS011;58875;51.996;4.504;2023-12-20T07:23:00;12.09;;;7.91;;
71172;SDS011;58875;51.996;4.504;2023-12-20T07:25:26;12.04;;;7.95;;
71172;SDS011;58875;51.996;4.504;2023-12-20T07:27:51;12.15;;;8.02;;
71172;SDS011;58875;51.996;4.504;2023-12-20T07:30:20;12.31;;;8.15;;
71172;SDS011;58875;51.996;4.504;2023-12-20T07:32:46;10.81;;;7.14;;
71172;SDS011;58875;51.996;4.504;2023-12-20T07:35:12;11.89;;;7.76;;
71172;SDS011;58875;51.996;4.504;2023-12-20T07:37:38;12.27;;;7.97;;
71172;SDS011;58875;51.996;4.504;2023-12-20T07:40:03;12.41;;;8.18;;
71172;SDS011;58875;51.996;4.504;2023-12-20T07:42:29;11.94;;;7.87;;
71172;SDS011;58875;51.996;4.504;2023-12-20T07:44:55;11.28;;;7.62;;
71172;SDS011;58875;51.996;4.504;2023-12-20T07:47:20;10.33;;;7.01;;
71172;SDS011;58875;51.996;4.504;2023-12-20T07:49:49;10.53;;;7.10;;
71172;SDS011;58875;51.996;4.504;2023-12-20T07:52:17;11.19;;;7.47;;
71172;SDS011;58875;51.996;4.504;2023-12-20T07:54:43;9.84;;;6.69;;
71172;SDS011;58875;51.996;4.504;2023-12-20T07:57:10;10.26;;;6.87;;
71172;SDS011;58875;51.996;4.504;2023-12-20T07:59:35;10.85;;;7.23;;
71172;SDS011;58875;51.996;4.504;2023-12-20T08:02:03;11.85;;;7.75;;
71172;SDS011;58875;51.996;4.504;2023-12-20T08:04:29;12.38;;;8.04;;
71172;SDS011;58875;51.996;4.504;2023-12-20T08:06:54;13.37;;;8.65;;
71172;SDS011;58875;51.996;4.504;2023-12-20T08:09:20;11.41;;;7.50;;
71172;SDS011;58875;51.996;4.504;2023-12-20T08:11:46;11.53;;;7.57;;
71172;SDS011;58875;51.996;4.504;2023-12-20T08:14:12;10.83;;;7.24;;
71172;SDS011;58875;51.996;4.504;2023-12-20T08:16:38;11.56;;;7.71;;
71172;SDS011;58875;51.996;4.504;2023-12-20T08:19:03;11.15;;;7.47;;
71172;SDS011;58875;51.996;4.504;2023-12-20T08:21:29;11.99;;;7.91;;
71172;SDS011;58875;51.996;4.504;2023-12-20T08:23:54;11.45;;;7.48;;
71172;SDS011;58875;51.996;4.504;2023-12-20T08:26:20;11.38;;;7.46;;
71172;SDS011;58875;51.996;4.504;2023-12-20T08:28:47;11.91;;;7.75;;
71172;SDS011;58875;51.996;4.504;2023-12-20T08:31:13;10.65;;;7.04;;
71172;SDS011;58875;51.996;4.504;2023-12-20T08:33:41;10.97;;;7.32;;
71172;SDS011;58875;51.996;4.504;2023-12-20T08:36:06;10.70;;;7.08;;
71172;SDS011;58875;51.996;4.504;2023-12-20T08:38:32;10.63;;;7.11;;
71172;SDS011;58875;51.996;4.504;2023-12-20T08:40:57;10.25;;;6.83;;
71172;SDS011;58875;51.996;4.504;2023-12-20T08:43:23;9.69;;;6.38;;
71172;SDS011;58875;51.996;4.504;2023-12-20T08:45:48;9.81;;;6.51;;
71172;SDS011;58875;51.996;4.504;2023-12-20T08:48:14;9.28;;;6.37;;
71172;SDS011;58875;51.996;4.504;2023-12-20T08:50:39;9.79;;;6.54;;
71172;SDS011;58875;51.996;4.504;2023-12-20T08:53:05;11.01;;;7.25;;
71172;SDS011;58875;51.996;4.504;2023-12-20T08:55:30;11.87;;;7.78;;
71172;SDS011;58875;51.996;4.504;2023-12-20T08:57:56;11.24;;;7.38;;
71172;SDS011;58875;51.996;4.504;2023-12-20T09:00:22;10.02;;;6.63;;
71172;SDS011;58875;51.996;4.504;2023-12-20T09:02:49;10.67;;;7.14;;
71172;SDS011;58875;51.996;4.504;2023-12-20T09:05:15;10.27;;;6.88;;
71172;SDS011;58875;51.996;4.504;2023-12-20T09:07:40;9.32;;;6.38;;
71172;SDS011;58875;51.996;4.504;2023-12-20T09:10:06;10.21;;;6.92;;
71172;SDS011;58875;51.996;4.504;2023-12-20T09:12:38;9.72;;;6.58;;
71172;SDS011;58875;51.996;4.504;2023-12-20T09:15:06;9.47;;;6.49;;
71172;SDS011;58875;51.996;4.504;2023-12-20T09:17:31;9.48;;;6.51;;
71172;SDS011;58875;51.996;4.504;2023-12-20T09:19:57;10.51;;;6.98;;
71172;SDS011;58875;51.996;4.504;2023-12-20T09:22:24;9.62;;;6.43;;
71172;SDS011;58875;51.996;4.504;2023-12-20T09:24:50;10.36;;;6.91;;
71172;SDS011;58875;51.996;4.504;2023-12-20T09:27:15;10.10;;;6.75;;
71172;SDS011;58875;51.996;4.504;2023-12-20T09:29:41;10.49;;;6.97;;
71172;SDS011;58875;51.996;4.504;2023-12-20T09:32:06;11.05;;;7.28;;
71172;SDS011;58875;51.996;4.504;2023-12-20T09:34:32;11.94;;;7.89;;
71172;SDS011;58875;51.996;4.504;2023-12-20T09:36:57;12.01;;;7.89;;
71172;SDS011;58875;51.996;4.504;2023-12-20T09:39:23;11.28;;;7.35;;
71172;SDS011;58875;51.996;4.504;2023-12-20T09:42:01;11.39;;;7.52;;
71172;SDS011;58875;51.996;4.504;2023-12-20T09:44:29;9.67;;;6.40;;
71172;SDS011;58875;51.996;4.504;2023-12-20T09:46:57;11.00;;;7.31;;
71172;SDS011;58875;51.996;4.504;2023-12-20T09:49:22;10.75;;;7.18;;
71172;SDS011;58875;51.996;4.504;2023-12-20T09:51:50;10.65;;;7.24;;
71172;SDS011;58875;51.996;4.504;2023-12-20T09:54:17;10.00;;;6.81;;
71172;SDS011;58875;51.996;4.504;2023-12-20T09:56:43;11.15;;;7.44;;
71172;SDS011;58875;51.996;4.504;2023-12-20T09:59:10;10.30;;;6.83;;
71172;SDS011;58875;51.996;4.504;2023-12-20T10:01:36;10.04;;;6.73;;
71172;SDS011;58875;51.996;4.504;2023-12-20T10:04:05;9.96;;;6.66;;
71172;SDS011;58875;51.996;4.504;2023-12-20T10:06:40;10.09;;;6.70;;
71172;SDS011;58875;51.996;4.504;2023-12-20T10:09:08;10.52;;;6.95;;
71172;SDS011;58875;51.996;4.504;2023-12-20T10:11:40;10.89;;;7.17;;
71172;SDS011;58875;51.996;4.504;2023-12-20T10:14:06;11.18;;;7.18;;
71172;SDS011;58875;51.996;4.504;2023-12-20T10:16:32;12.05;;;7.65;;
71172;SDS011;58875;51.996;4.504;2023-12-20T10:18:59;11.61;;;7.35;;
71172;SDS011;58875;51.996;4.504;2023-12-20T10:21:26;10.28;;;6.62;;
71172;SDS011;58875;51.996;4.504;2023-12-20T10:23:53;10.64;;;6.80;;
71172;SDS011;58875;51.996;4.504;2023-12-20T10:26:19;11.01;;;7.06;;
71172;SDS011;58875;51.996;4.504;2023-12-20T10:28:49;10.81;;;6.95;;
71172;SDS011;58875;51.996;4.504;2023-12-20T10:31:29;10.75;;;7.01;;
71172;SDS011;58875;51.996;4.504;2023-12-20T10:33:56;10.30;;;6.70;;
71172;SDS011;58875;51.996;4.504;2023-12-20T10:36:24;9.86;;;6.42;;
71172;SDS011;58875;51.996;4.504;2023-12-20T10:38:52;8.79;;;5.78;;
71172;SDS011;58875;51.996;4.504;2023-12-20T10:41:24;9.99;;;6.58;;
71172;SDS011;58875;51.996;4.504;2023-12-20T10:44:00;10.85;;;7.06;;
71172;SDS011;58875;51.996;4.504;2023-12-20T10:46:34;10.06;;;6.57;;
71172;SDS011;58875;51.996;4.504;2023-12-20T10:49:02;9.85;;;6.45;;
71172;SDS011;58875;51.996;4.504;2023-12-20T10:51:32;10.43;;;6.77;;
71172;SDS011;58875;51.996;4.504;2023-12-20T10:54:00;11.79;;;7.66;;
71172;SDS011;58875;51.996;4.504;2023-12-20T10:56:25;10.89;;;7.12;;
71172;SDS011;58875;51.996;4.504;2023-12-20T10:58:58;10.80;;;7.11;;
71172;SDS011;58875;51.996;4.504;2023-12-20T11:01:30;9.68;;;6.57;;
71172;SDS011;58875;51.996;4.504;2023-12-20T11:03:57;9.05;;;6.11;;
71172;SDS011;58875;51.996;4.504;2023-12-20T11:09:30;11.28;;;7.37;;
71172;SDS011;58875;51.996;4.504;2023-12-20T11:12:15;10.37;;;6.82;;
71172;SDS011;58875;51.996;4.504;2023-12-20T11:15:03;9.99;;;6.61;;
71172;SDS011;58875;51.996;4.504;2023-12-20T11:17:31;10.74;;;6.97;;
71172;SDS011;58875;51.996;4.504;2023-12-20T11:22:26;11.39;;;7.32;;
71172;SDS011;58875;51.996;4.504;2023-12-20T11:24:57;11.10;;;7.12;;
71172;SDS011;58875;51.996;4.504;2023-12-20T11:27:28;10.32;;;6.67;;
71172;SDS011;58875;51.996;4.504;2023-12-20T11:29:56;9.79;;;6.33;;
71172;SDS011;58875;51.996;4.504;2023-12-20T11:34:54;9.79;;;6.38;;
71172;SDS011;58875;51.996;4.504;2023-12-20T11:37:31;10.04;;;6.52;;
71172;SDS011;58875;51.996;4.504;2023-12-20T11:40:02;10.71;;;6.88;;
71172;SDS011;58875;51.996;4.504;2023-12-20T11:42:35;11.53;;;7.51;;
71172;SDS011;58875;51.996;4.504;2023-12-20T11:45:03;9.76;;;6.39;;
71172;SDS011;58875;51.996;4.504;2023-12-20T11:47:30;9.70;;;6.33;;
71172;SDS011;58875;51.996;4.504;2023-12-20T11:49:57;9.19;;;6.07;;
71172;SDS011;58875;51.996;4.504;2023-12-20T11:52:22;9.08;;;6.07;;
71172;SDS011;58875;51.996;4.504;2023-12-20T11:54:48;8.80;;;5.93;;
71172;SDS011;58875;51.996;4.504;2023-12-20T11:57:13;9.20;;;6.16;;
71172;SDS011;58875;51.996;4.504;2023-12-20T11:59:39;9.49;;;6.33;;
71172;SDS011;58875;51.996;4.504;2023-12-20T12:02:07;9.50;;;6.27;;
71172;SDS011;58875;51.996;4.504;2023-12-20T12:04:34;9.39;;;6.24;;
71172;SDS011;58875;51.996;4.504;2023-12-20T12:07:00;9.00;;;6.02;;
71172;SDS011;58875;51.996;4.504;2023-12-20T12:09:29;10.32;;;6.84;;
71172;SDS011;58875;51.996;4.504;2023-12-20T12:11:54;10.08;;;6.59;;
71172;SDS011;58875;51.996;4.504;2023-12-20T12:14:22;11.30;;;7.31;;
71172;SDS011;58875;51.996;4.504;2023-12-20T12:16:49;10.08;;;6.59;;
71172;SDS011;58875;51.996;4.504;2023-12-20T12:19:22;10.15;;;6.58;;
71172;SDS011;58875;51.996;4.504;2023-12-20T12:22:04;10.49;;;6.72;;
71172;SDS011;58875;51.996;4.504;2023-12-20T12:24:32;10.69;;;6.85;;
71172;SDS011;58875;51.996;4.504;2023-12-20T12:26:58;10.31;;;6.61;;
71172;SDS011;58875;51.996;4.504;2023-12-20T12:29:24;9.88;;;6.32;;
71172;SDS011;58875;51.996;4.504;2023-12-20T12:31:50;11.51;;;7.30;;
71172;SDS011;58875;51.996;4.504;2023-12-20T12:34:18;10.83;;;6.85;;
71172;SDS011;58875;51.996;4.504;2023-12-20T12:36:44;10.17;;;6.49;;
71172;SDS011;58875;51.996;4.504;2023-12-20T12:39:14;9.99;;;6.47;;
71172;SDS011;58875;51.996;4.504;2023-12-20T12:41:43;9.98;;;6.43;;
71172;SDS011;58875;51.996;4.504;2023-12-20T12:44:09;9.29;;;5.92;;
71172;SDS011;58875;51.996;4.504;2023-12-20T12:46:34;10.58;;;6.80;;
71172;SDS011;58875;51.996;4.504;2023-12-20T12:49:00;9.15;;;5.92;;
71172;SDS011;58875;51.996;4.504;2023-12-20T12:51:26;9.60;;;6.23;;
71172;SDS011;58875;51.996;4.504;2023-12-20T12:53:52;9.59;;;6.28;;
71172;SDS011;58875;51.996;4.504;2023-12-20T12:56:20;10.10;;;6.65;;
71172;SDS011;58875;51.996;4.504;2023-12-20T12:58:47;9.65;;;6.47;;
71172;SDS011;58875;51.996;4.504;2023-12-20T13:01:13;9.58;;;6.48;;
71172;SDS011;58875;51.996;4.504;2023-12-20T13:03:42;9.16;;;6.21;;
71172;SDS011;58875;51.996;4.504;2023-12-20T13:06:12;9.25;;;6.24;;
71172;SDS011;58875;51.996;4.504;2023-12-20T13:08:38;9.52;;;6.37;;
71172;SDS011;58875;51.996;4.504;2023-12-20T13:11:04;10.37;;;6.91;;
71172;SDS011;58875;51.996;4.504;2023-12-20T13:13:30;10.04;;;6.63;;
71172;SDS011;58875;51.996;4.504;2023-12-20T13:16:03;8.43;;;5.68;;
71172;SDS011;58875;51.996;4.504;2023-12-20T13:18:29;10.51;;;6.97;;
71172;SDS011;58875;51.996;4.504;2023-12-20T13:20:55;10.77;;;7.09;;
71172;SDS011;58875;51.996;4.504;2023-12-20T13:23:21;9.34;;;6.17;;
71172;SDS011;58875;51.996;4.504;2023-12-20T13:29:01;9.78;;;6.54;;
71172;SDS011;58875;51.996;4.504;2023-12-20T13:31:39;8.66;;;5.77;;
71172;SDS011;58875;51.996;4.504;2023-12-20T13:34:05;9.40;;;6.20;;
71172;SDS011;58875;51.996;4.504;2023-12-20T13:36:31;9.34;;;6.14;;
71172;SDS011;58875;51.996;4.504;2023-12-20T13:38:59;10.63;;;6.85;;
71172;SDS011;58875;51.996;4.504;2023-12-20T13:41:32;9.56;;;6.29;;
71172;SDS011;58875;51.996;4.504;2023-12-20T13:43:57;10.02;;;6.60;;
71172;SDS011;58875;51.996;4.504;2023-12-20T13:46:23;9.06;;;6.02;;
71172;SDS011;58875;51.996;4.504;2023-12-20T13:48:49;8.96;;;6.05;;
71172;SDS011;58875;51.996;4.504;2023-12-20T13:51:17;8.36;;;5.73;;
71172;SDS011;58875;51.996;4.504;2023-12-20T13:53:54;9.12;;;6.26;;
71172;SDS011;58875;51.996;4.504;2023-12-20T13:56:26;8.69;;;6.06;;
71172;SDS011;58875;51.996;4.504;2023-12-20T13:58:51;9.15;;;6.32;;
71172;SDS011;58875;51.996;4.504;2023-12-20T14:01:17;9.07;;;6.26;;
71172;SDS011;58875;51.996;4.504;2023-12-20T14:03:45;9.48;;;6.41;;
71172;SDS011;58875;51.996;4.504;2023-12-20T14:06:14;9.28;;;6.31;;
71172;SDS011;58875;51.996;4.504;2023-12-20T14:08:45;8.83;;;6.07;;
71172;SDS011;58875;51.996;4.504;2023-12-20T14:11:14;9.08;;;6.21;;
71172;SDS011;58875;51.996;4.504;2023-12-20T14:13:43;10.11;;;6.73;;
71172;SDS011;58875;51.996;4.504;2023-12-20T14:16:09;10.02;;;6.66;;
71172;SDS011;58875;51.996;4.504;2023-12-20T14:18:41;9.79;;;6.63;;
71172;SDS011;58875;51.996;4.504;2023-12-20T14:21:22;9.75;;;6.67;;
71172;SDS011;58875;51.996;4.504;2023-12-20T14:23:49;9.66;;;6.68;;
71172;SDS011;58875;51.996;4.504;2023-12-20T14:26:14;9.53;;;6.69;;
71172;SDS011;58875;51.996;4.504;2023-12-20T14:28:41;9.31;;;6.60;;
71172;SDS011;58875;51.996;4.504;2023-12-20T14:31:07;8.38;;;5.95;;
71172;SDS011;58875;51.996;4.504;2023-12-20T14:33:33;8.21;;;5.77;;
71172;SDS011;58875;51.996;4.504;2023-12-20T14:36:00;8.26;;;5.73;;
71172;SDS011;58875;51.996;4.504;2023-12-20T14:38:25;8.57;;;5.93;;
71172;SDS011;58875;51.996;4.504;2023-12-20T14:40:53;9.40;;;6.35;;
71172;SDS011;58875;51.996;4.504;2023-12-20T14:43:19;8.74;;;5.87;;
71172;SDS011;58875;51.996;4.504;2023-12-20T14:45:47;8.93;;;6.05;;
71172;SDS011;58875;51.996;4.504;2023-12-20T14:48:13;8.60;;;5.81;;